VRMM/MLE METAR and TAF weather

Enter ICAO airport designator
Station Type Date Time Source
VRMM METAR 2021/03/04 21:00 UTC NOAA

VRMM 042100Z 11013KT 8000 SCT018 28/24 Q1010 NOSIG


Station Type Date Time Source
VRMM Decoded METAR 2021/03/04 21:00 UTC NOAA

Male, Maldives (VRMM) 04-12N 073-32E 2M
Mar 04, 2021 - 04:00 PM EST / 2021.03.04 2100 UTC
Wind: from the ESE (110 degrees) at 15 MPH (13 KT):0
Visibility: 4 mile(s):0
Sky conditions: partly cloudy
Temperature: 82 F (28 C)
Dew Point: 75 F (24 C)
Relative Humidity: 78%
Pressure (altimeter): 29.83 in. Hg (1010 hPa)
ob: VRMM 042100Z 11013KT 8000 SCT018 28/24 Q1010 NOSIG
cycle: 21

Station Type Date Time Source
VRMM TAF 2021/03/04 18:15 UTC NOAA

TAF VRMM 041700Z 0418/0524 08012KT 8000 FEW018TCU
TEMPO 0419/0424 FEW017CB

Example: see airport list